Time;durP1;ratioP1;P1;durP2;ratioP2;P2;SDS_P1;SDS_P2;PMS_P1;PMS_P2;Temp;Humidity;BMP_temperature;BMP_pressure;BME280_temperature;BME280_humidity;BME280_pressure;Samples;Min_cycle;Max_cycle;Signal;HPM_P1;HPM_P2
2022/12/06 00:01:45;;;;;;;7.00;6.30;;;;;;;4.70;100.00;102042.16;5115104;28;20269;-34
2022/12/06 00:04:14;;;;;;;6.78;5.95;;;;;;;4.76;100.00;102057.59;5115382;28;20059;-34
2022/12/06 00:06:42;;;;;;;5.80;5.30;;;;;;;4.75;100.00;102049.72;5114877;28;20023;-34
2022/12/06 00:09:14;;;;;;;6.82;6.13;;;;;;;4.82;100.00;102058.75;5115351;28;20106;-34
2022/12/06 00:11:39;;;;;;;6.80;5.35;;;;;;;4.85;100.00;102058.44;5115037;28;20031;-34
2022/12/06 00:14:06;;;;;;;6.23;5.63;;;;;;;4.90;100.00;102054.28;5115383;28;20114;-34
2022/12/06 00:16:33;;;;;;;6.57;5.82;;;;;;;4.88;100.00;102053.59;5114552;28;20031;-34
2022/12/06 00:19:00;;;;;;;7.25;6.22;;;;;;;4.86;100.00;102050.25;5114527;28;20067;-34
2022/12/06 00:21:29;;;;;;;;;;;;;;;4.95;100.00;102047.59;5114808;28;20493;-34
2022/12/06 00:24:06;;;;;;;5.95;5.35;;;;;;;4.87;100.00;102057.28;5114115;28;20412;-34
2022/12/06 00:26:35;;;;;;;6.85;5.80;;;;;;;4.82;100.00;102054.25;5114553;28;20064;-34
2022/12/06 00:29:00;;;;;;;6.57;5.97;;;;;;;4.81;100.00;102052.56;5115148;28;20115;-34
2022/12/06 00:31:29;;;;;;;6.40;5.80;;;;;;;4.85;100.00;102051.25;5114553;28;20445;-34
2022/12/06 00:33:54;;;;;;;6.75;6.03;;;;;;;4.80;100.00;102050.91;5114828;28;20343;-34
2022/12/06 00:36:28;;;;;;;6.18;5.60;;;;;;;4.78;100.00;102052.91;5114486;28;20428;-34
2022/12/06 00:38:54;;;;;;;6.78;6.07;;;;;;;4.77;100.00;102056.56;5114919;28;20034;-34
2022/12/06 00:41:23;;;;;;;6.70;6.05;;;;;;;4.79;100.00;102053.75;5113637;28;20360;-33
2022/12/06 00:43:50;;;;;;;6.20;5.57;;;;;;;4.83;100.00;102049.72;5114548;28;20051;-33
2022/12/06 00:46:20;;;;;;;6.18;5.63;;;;;;;4.81;100.00;102052.56;5114076;28;20086;-34
2022/12/06 00:48:47;;;;;;;6.97;6.28;;;;;;;4.72;100.00;102048.19;5114567;28;20467;-33
2022/12/06 00:51:15;;;;;;;7.00;6.30;;;;;;;4.77;100.00;102047.69;5114135;28;20023;-33
2022/12/06 00:53:40;;;;;;;6.40;5.68;;;;;;;4.62;100.00;102026.88;5114590;28;20099;-33
2022/12/06 00:56:06;;;;;;;9.68;5.90;;;;;;;4.74;100.00;102051.56;5114135;28;20518;-33
2022/12/06 00:58:32;;;;;;;6.03;5.30;;;;;;;4.80;100.00;102050.91;5114599;28;20062;-33
2022/12/06 01:01:11;;;;;;;6.43;5.45;;;;;;;4.79;100.00;102059.94;5114006;28;20031;-34
2022/12/06 01:03:37;;;;;;;8.15;5.68;;;;;;;4.77;100.00;102051.22;5114447;28;20364;-33
2022/12/06 01:06:05;;;;;;;6.13;4.57;;;;;;;4.87;100.00;102057.28;5113830;28;20020;-33
2022/12/06 01:08:32;;;;;;;6.30;4.47;;;;;;;4.95;100.00;102059.16;5113888;28;20382;-33
2022/12/06 01:10:57;;;;;;;5.78;5.18;;;;;;;4.89;100.00;102051.75;5113759;28;20024;-33
2022/12/06 01:13:23;;;;;;;6.27;5.57;;;;;;;4.87;100.00;102054.59;5113964;28;20075;-33
2022/12/06 01:15:48;;;;;;;8.40;6.33;;;;;;;4.83;100.00;102058.63;5113445;28;20790;-33
2022/12/06 01:18:13;;;;;;;6.43;4.60;;;;;;;4.88;100.00;102053.59;5113589;28;20721;-33
2022/12/06 01:20:39;;;;;;;7.20;5.70;;;;;;;4.82;100.00;102048.88;5114299;28;20028;-33
2022/12/06 01:23:04;;;;;;;5.13;4.53;;;;;;;4.95;100.00;102055.63;5113845;28;20106;-33
2022/12/06 01:25:31;;;;;;;6.93;5.30;;;;;;;4.83;100.00;102039.00;5113181;28;20031;-34
2022/12/06 01:27:57;;;;;;;6.20;5.22;;;;;;;4.96;100.00;102051.94;5112114;28;20046;-34
2022/12/06 01:30:22;;;;;;;5.32;4.82;;;;;;;4.98;100.00;102048.09;5113472;28;20031;-34
2022/12/06 01:32:48;;;;;;;7.27;6.57;;;;;;;4.99;100.00;102048.94;5112476;28;20032;-34
2022/12/06 01:35:13;;;;;;;6.37;5.77;;;;;;;4.96;100.00;102054.63;5113470;28;20031;-34
2022/12/06 01:37:38;;;;;;;8.57;5.93;;;;;;;4.93;100.00;102044.22;5112792;28;20031;-34
2022/12/06 01:40:05;;;;;;;7.33;6.03;;;;;;;4.88;100.00;102050.94;5113433;28;20041;-34
2022/12/06 01:42:30;;;;;;;8.63;5.47;;;;;;;4.96;100.00;102049.25;5113960;28;20027;-34
2022/12/06 01:44:59;;;;;;;5.87;5.27;;;;;;;5.02;100.00;102056.63;5113826;28;20045;-34
2022/12/06 01:47:32;;;;;;;6.10;5.50;;;;;;;4.93;100.00;102046.88;5111888;28;20054;-34
2022/12/06 01:50:03;;;;;;;6.38;4.80;;;;;;;4.91;100.00;102055.94;5113283;28;20023;-34
2022/12/06 01:52:35;;;;;;;8.27;5.10;;;;;;;4.85;100.00;102056.59;5113447;28;20024;-34
2022/12/06 01:55:02;;;;;;;6.15;5.50;;;;;;;4.77;100.00;102043.19;5111973;28;20468;-34
2022/12/06 01:57:28;;;;;;;6.20;5.45;;;;;;;4.85;100.00;102048.56;5113101;28;20024;-34
2022/12/06 01:59:54;;;;;;;5.32;4.82;;;;;;;4.79;100.00;102041.19;5113720;28;20464;-34
2022/12/06 02:02:19;;;;;;;5.70;5.13;;;;;;;4.85;100.00;102048.56;5113047;28;20085;-34
2022/12/06 02:04:46;;;;;;;5.40;4.90;;;;;;;4.81;100.00;102027.63;5113164;28;20503;-34
2022/12/06 02:07:12;;;;;;;5.47;4.97;;;;;;;4.75;100.00;102039.84;5113622;28;20030;-34
2022/12/06 02:09:38;;;;;;;6.28;5.03;;;;;;;4.76;100.00;102043.34;5113632;28;20433;-34
2022/12/06 02:12:10;;;;;;;5.72;4.65;;;;;;;4.80;100.00;102053.56;5113061;28;20035;-34
2022/12/06 02:14:36;;;;;;;6.63;5.10;;;;;;;4.80;100.00;102050.06;5113346;28;20031;-34
2022/12/06 02:17:23;;;;;;;7.90;5.05;;;;;;;4.78;100.00;102047.56;5112004;28;20044;-34
2022/12/06 02:19:57;;;;;;;6.03;4.80;;;;;;;4.81;100.00;102046.38;5113530;28;20102;-34
2022/12/06 02:22:53;;;;;;;6.47;4.90;;;;;;;4.78;100.00;102049.38;5112918;28;20062;-34
2022/12/06 02:25:54;;;;;;;5.57;4.60;;;;;;;4.79;100.00;102048.38;5104443;28;20176;-34
2022/12/06 02:28:31;;;;;;;5.68;4.65;;;;;;;4.80;100.00;102045.53;5113703;28;20037;-34
2022/12/06 02:31:08;;;;;;;4.75;4.18;;;;;;;4.81;100.00;102046.38;5116966;28;20509;-34
2022/12/06 02:33:33;;;;;;;;;;;;;;;4.80;100.00;102044.69;5117282;28;20107;-34
2022/12/06 02:36:29;;;;;;;6.50;4.53;;;;;;;4.73;100.00;102027.59;5116734;28;19998;-34
2022/12/06 02:39:01;;;;;;;8.80;4.85;;;;;;;4.79;100.00;102043.03;5117333;28;20110;-34
2022/12/06 02:41:32;;;;;;;6.05;5.30;;;;;;;4.78;100.00;102036.84;5116723;28;20028;-34
2022/12/06 02:44:15;;;;;;;6.68;5.07;;;;;;;4.78;100.00;102041.31;5116928;28;20096;-34
2022/12/06 02:46:42;;;;;;;5.55;4.90;;;;;;;4.77;100.00;102036.97;5116582;28;20097;-34
2022/12/06 02:49:11;;;;;;;7.40;5.50;;;;;;;4.75;100.00;102034.47;5116618;28;20176;-35
2022/12/06 02:51:38;;;;;;;6.55;5.20;;;;;;;4.74;100.00;102040.00;5115455;28;20380;-34
2022/12/06 02:54:07;;;;;;;7.32;5.32;;;;;;;4.75;100.00;102030.97;5116477;27;20023;-34
2022/12/06 02:56:33;;;;;;;7.13;5.13;;;;;;;4.76;100.00;102033.47;5116418;28;20115;-34
2022/12/06 02:58:59;;;;;;;5.53;5.00;;;;;;;4.75;100.00;102030.97;5116415;28;20142;-35
2022/12/06 03:01:31;;;;;;;7.70;5.43;;;;;;;4.76;100.00;102029.94;5116554;28;20080;-34
2022/12/06 03:04:18;;;;;;;7.63;5.18;;;;;;;4.72;100.00;102032.09;5116820;27;20528;-34
2022/12/06 03:06:55;;;;;;;8.02;5.93;;;;;;;4.72;100.00;102024.06;5116141;28;20031;-34
2022/12/06 03:09:42;;;;;;;;;;;;;;;4.82;100.00;102030.13;5116747;28;20032;-34
2022/12/06 03:12:23;;;;;;;8.70;5.65;;;;;;;4.75;100.00;102030.97;5116224;28;19908;-35
2022/12/06 03:14:59;;;;;;;8.23;5.90;;;;;;;4.74;100.00;102034.66;5116182;28;20031;-34
2022/12/06 03:17:37;;;;;;;8.02;5.65;;;;;;;4.74;100.00;102037.31;5116255;28;20027;-35
2022/12/06 03:20:09;;;;;;;8.15;5.85;;;;;;;4.67;100.00;102028.25;5116308;28;20043;-33
2022/12/06 03:22:41;;;;;;;7.82;5.82;;;;;;;4.75;100.00;102033.63;5115945;28;20024;-33
2022/12/06 03:25:08;;;;;;;6.30;5.40;;;;;;;4.76;100.00;102038.81;5115622;28;20034;-33
2022/12/06 03:27:35;;;;;;;7.63;5.95;;;;;;;4.75;100.00;102041.69;5116246;28;20016;-33
2022/12/06 03:30:04;;;;;;;6.93;5.80;;;;;;;4.76;100.00;102038.81;5115778;28;20382;-34
2022/12/06 03:32:32;;;;;;;9.77;6.32;;;;;;;4.69;100.00;102026.25;5115743;28;20099;-34
2022/12/06 03:35:04;;;;;;;8.52;6.10;;;;;;;4.76;100.00;102038.00;5115719;28;20019;-34
2022/12/06 03:37:31;;;;;;;9.48;5.75;;;;;;;4.77;100.00;102032.44;5115777;28;20032;-34
2022/12/06 03:40:12;;;;;;;8.90;6.50;;;;;;;4.77;100.00;102039.66;5114951;28;20479;-33
2022/12/06 03:42:38;;;;;;;8.63;6.53;;;;;;;4.75;100.00;102042.50;5115643;28;20027;-33
2022/12/06 03:45:04;;;;;;;7.05;5.75;;;;;;;4.68;100.00;102017.34;5114596;28;20035;-33
2022/12/06 03:47:40;;;;;;;8.68;5.80;;;;;;;4.77;100.00;102026.25;5115258;28;20130;-34
2022/12/06 03:50:15;;;;;;;10.30;6.25;;;;;;;4.70;100.00;102027.94;5115675;28;20495;-33
2022/12/06 03:52:41;;;;;;;8.43;5.57;;;;;;;4.80;100.00;102032.13;5115866;28;20114;-34
2022/12/06 03:55:07;;;;;;;7.88;5.22;;;;;;;4.82;100.00;102038.16;5115712;28;20177;-33
2022/12/06 03:57:33;;;;;;;;;;;;;;;4.85;100.00;102031.66;5115628;28;20374;-33
2022/12/06 03:59:58;;;;;;;8.98;5.38;;;;;;;4.84;100.00;102044.22;5115042;28;19915;-34
2022/12/06 04:02:24;;;;;;;8.70;6.30;;;;;;;4.84;100.00;102029.97;5115109;28;20039;-34
2022/12/06 04:04:49;;;;;;;7.53;5.67;;;;;;;4.81;100.00;102023.09;5113804;28;20072;-34
2022/12/06 04:07:15;;;;;;;13.30;5.93;;;;;;;4.68;100.00;102013.84;5115490;28;20073;-34
2022/12/06 04:10:01;;;;;;;11.68;6.07;;;;;;;4.83;100.00;102033.63;5115345;28;20049;-34
2022/12/06 04:15:11;;;;;;;9.55;5.90;;;;;;;4.77;100.00;102019.06;5114923;28;20434;-34
2022/12/06 04:20:24;;;;;;;9.82;6.20;;;;;;;4.71;100.00;102022.41;5114806;28;20035;-34
2022/12/06 04:23:04;;;;;;;;;;;;;;;4.83;100.00;102029.16;5115355;28;20043;-34
2022/12/06 04:25:34;;;;;;;11.15;5.93;;;;;;;4.78;100.00;102025.25;5115213;28;19908;-34
2022/12/06 04:38:56;;;;;;;11.13;5.60;;;;;;;4.77;100.00;102045.03;5114601;28;20441;-34
2022/12/06 04:44:17;;;;;;;8.70;5.03;;;;;;;4.77;100.00;102037.81;5051582;28;20072;-34
2022/12/06 04:46:42;;;;;;;11.90;5.33;;;;;;;4.72;100.00;102028.59;5051252;28;20037;-34
2022/12/06 04:49:07;;;;;;;10.17;5.63;;;;;;;4.74;100.00;102040.84;5051755;28;20056;-34
2022/12/06 04:51:33;;;;;;;13.70;5.80;;;;;;;4.69;100.00;102037.81;5050582;28;20045;-34
2022/12/06 04:53:58;;;;;;;10.73;4.85;;;;;;;4.64;100.00;102024.91;5051454;28;20467;-35
2022/12/06 04:56:24;;;;;;;6.17;4.60;;;;;;;4.67;100.00;102022.88;5051200;28;20032;-35
2022/12/06 04:58:50;;;;;;;9.93;5.00;;;;;;;4.67;100.00;102018.38;5051183;28;20263;-34
2022/12/06 05:01:15;;;;;;;8.57;5.22;;;;;;;4.73;100.00;102027.59;5051346;28;20064;-34
2022/12/06 05:03:40;;;;;;;11.60;5.27;;;;;;;4.70;100.00;102023.41;5051118;28;20540;-35
2022/12/06 05:06:06;;;;;;;9.77;5.40;;;;;;;4.76;100.00;102036.16;5050911;28;20032;-35
2022/12/06 05:08:32;;;;;;;8.85;5.18;;;;;;;4.72;100.00;102032.09;5051307;28;20048;-35
2022/12/06 05:10:57;;;;;;;9.65;4.65;;;;;;;4.68;100.00;102020.03;5034052;28;20025;-34
2022/12/06 05:13:22;;;;;;;9.00;4.73;;;;;;;4.74;100.00;102030.13;5051078;28;20052;-35
2022/12/06 05:15:53;;;;;;;8.03;4.40;;;;;;;4.70;100.00;102020.72;5050774;28;20040;-34
2022/12/06 05:18:19;;;;;;;11.20;5.10;;;;;;;4.75;100.00;102031.78;5051241;28;20055;-34
2022/12/06 05:20:44;;;;;;;9.07;4.73;;;;;;;4.73;100.00;102033.78;5084184;28;20043;-34
2022/12/06 05:23:09;;;;;;;7.32;4.40;;;;;;;4.58;100.00;102006.78;5113687;28;20038;-34
2022/12/06 05:25:35;;;;;;;6.77;4.30;;;;;;;4.72;100.00;102024.06;5113740;28;20027;-34
2022/12/06 05:28:00;;;;;;;7.63;4.30;;;;;;;4.66;100.00;102014.00;5114046;28;20110;-35
2022/12/06 05:30:25;;;;;;;5.87;3.87;;;;;;;4.73;100.00;102023.06;5095129;28;20047;-34
2022/12/06 05:32:51;;;;;;;8.07;4.97;;;;;;;4.73;100.00;102031.09;5113778;28;20043;-35
2022/12/06 05:35:16;;;;;;;8.13;4.40;;;;;;;4.72;100.00;102020.56;5113404;28;20035;-34
2022/12/06 05:37:41;;;;;;;6.87;4.27;;;;;;;4.74;100.00;102030.13;5112148;28;20418;-34
2022/12/06 05:40:07;;;;;;;10.97;4.50;;;;;;;4.72;100.00;102024.06;5113718;28;20300;-34
2022/12/06 05:42:32;;;;;;;8.38;4.20;;;;;;;4.60;100.00;102012.00;5114148;28;20032;-34
2022/12/06 05:44:58;;;;;;;7.37;3.80;;;;;;;4.56;100.00;101995.41;5113770;28;20413;-34
2022/12/06 05:47:23;;;;;;;6.23;3.90;;;;;;;4.70;100.00;102030.63;5112796;28;20486;-35
2022/12/06 05:49:50;;;;;;;8.97;3.70;;;;;;;4.68;100.00;102030.75;5113524;28;20114;-35
2022/12/06 05:52:15;;;;;;;8.23;3.60;;;;;;;4.69;100.00;102027.09;5111829;28;20464;-34
2022/12/06 05:54:40;;;;;;;7.40;4.20;;;;;;;4.67;100.00;102028.25;5113580;28;20138;-34
2022/12/06 05:57:05;;;;;;;5.67;3.50;;;;;;;4.73;100.00;102027.59;5113179;28;20035;-34
2022/12/06 05:59:31;;;;;;;6.37;3.87;;;;;;;4.71;100.00;102025.06;5113961;28;20036;-35
2022/12/06 06:01:56;;;;;;;7.40;4.20;;;;;;;4.71;100.00;102025.06;5112889;28;20055;-35
2022/12/06 06:04:21;;;;;;;9.00;3.73;;;;;;;4.69;100.00;102029.78;5117203;28;20112;-34
2022/12/06 06:06:47;;;;;;;6.10;3.37;;;;;;;4.70;100.00;102033.28;5117384;28;20076;-35
2022/12/06 06:09:12;;;;;;;7.13;3.50;;;;;;;4.74;100.00;102032.81;5116365;28;20028;-35
2022/12/06 06:11:37;;;;;;;5.97;3.00;;;;;;;4.68;100.00;102021.88;5116126;28;20055;-35
2022/12/06 06:14:03;;;;;;;8.33;4.20;;;;;;;4.70;100.00;102039.47;5099004;28;20587;-34
2022/12/06 06:16:28;;;;;;;7.37;3.70;;;;;;;4.68;100.00;102033.44;5115679;28;20388;-34
2022/12/06 06:18:53;;;;;;;7.57;3.53;;;;;;;4.60;100.00;102020.03;5117543;28;20110;-34
2022/12/06 06:21:18;;;;;;;7.53;3.80;;;;;;;4.51;100.00;102012.97;5116831;28;20079;-34
2022/12/06 06:23:44;;;;;;;5.23;3.03;;;;;;;4.68;100.00;102030.75;5117422;28;20051;-34
2022/12/06 06:26:10;;;;;;;7.93;3.23;;;;;;;4.59;100.00;102032.59;5116960;28;20058;-34
2022/12/06 06:28:36;;;;;;;5.68;2.97;;;;;;;4.68;100.00;102037.94;5117245;28;20030;-34
2022/12/06 06:31:03;;;;;;;4.80;3.33;;;;;;;4.53;100.00;102035.91;5117392;28;20106;-34
2022/12/06 06:33:29;;;;;;;6.15;3.20;;;;;;;4.62;100.00;102034.09;5117109;28;20027;-34
2022/12/06 06:35:54;;;;;;;7.07;3.33;;;;;;;4.52;100.00;102020.00;5116831;28;20023;-34
2022/12/06 06:38:19;;;;;;;6.10;3.13;;;;;;;4.50;100.00;102024.69;5117155;28;20031;-34
2022/12/06 06:40:45;;;;;;;5.93;3.17;;;;;;;4.51;100.00;102018.31;5116798;28;20160;-33
2022/12/06 06:43:19;;;;;;;5.80;3.47;;;;;;;4.51;100.00;102034.41;5117004;27;20473;-33
2022/12/06 06:45:50;;;;;;;6.50;3.63;;;;;;;4.48;100.00;102040.91;5116983;28;20024;-34
2022/12/06 06:48:15;;;;;;;6.40;3.45;;;;;;;4.49;100.00;102037.25;5116933;28;20054;-34
2022/12/06 06:50:40;;;;;;;4.63;3.03;;;;;;;4.47;100.00;102033.03;5116584;28;20031;-34
2022/12/06 06:53:06;;;;;;;7.13;3.23;;;;;;;4.44;100.00;102023.50;5116891;28;20039;-34
2022/12/06 06:55:31;;;;;;;5.90;2.80;;;;;;;4.37;100.00;102022.47;5116547;27;20032;-34
2022/12/06 06:57:57;;;;;;;9.07;3.42;;;;;;;4.35;100.00;102016.44;5116554;28;20491;-34
2022/12/06 07:00:23;;;;;;;8.13;3.43;;;;;;;4.32;100.00;102028.28;5116397;28;20031;-34
2022/12/06 07:02:48;;;;;;;6.05;3.42;;;;;;;4.19;100.00;102009.16;5116792;28;20026;-34
2022/12/06 07:05:13;;;;;;;6.20;3.57;;;;;;;4.26;100.00;102023.59;5116247;28;20036;-34
2022/12/06 07:07:39;;;;;;;4.70;3.00;;;;;;;4.22;100.00;102013.34;5116710;28;20078;-34
2022/12/06 07:10:05;;;;;;;5.43;3.23;;;;;;;4.23;100.00;102025.75;5116253;28;20383;-34
2022/12/06 07:12:30;;;;;;;5.38;3.22;;;;;;;4.25;100.00;102019.25;5116483;28;20031;-34
2022/12/06 07:14:55;;;;;;;6.47;3.03;;;;;;;4.27;100.00;102027.09;5115563;28;20019;-34
2022/12/06 07:17:21;;;;;;;6.63;3.13;;;;;;;4.22;100.00;102029.41;5116487;28;20108;-35
2022/12/06 07:19:46;;;;;;;7.47;4.13;;;;;;;4.23;100.00;102025.75;5115510;28;20119;-35
2022/12/06 07:22:12;;;;;;;8.65;3.40;;;;;;;4.26;100.00;102026.25;5115620;28;20120;-35
2022/12/06 07:24:37;;;;;;;6.23;2.80;;;;;;;4.25;100.00;102024.59;5115933;28;20120;-35
2022/12/06 07:27:02;;;;;;;4.87;2.83;;;;;;;4.25;100.00;102019.25;5116105;28;20026;-35
2022/12/06 07:29:28;;;;;;;8.13;3.07;;;;;;;4.23;100.00;102021.22;5115279;28;20444;-35
2022/12/06 07:31:53;;;;;;;8.30;3.80;;;;;;;4.26;100.00;102020.06;5115465;28;20032;-35
2022/12/06 07:34:18;;;;;;;5.17;3.07;;;;;;;4.25;100.00;102027.28;5115626;28;20051;-32
2022/12/06 07:36:44;;;;;;;7.23;3.13;;;;;;;4.26;100.00;102026.25;5115665;28;20270;-34
2022/12/06 07:39:09;;;;;;;10.30;4.93;;;;;;;4.24;100.00;102028.25;5116016;28;20023;-35
2022/12/06 07:47:02;;;;;;;4.65;2.28;;;;;;;4.28;100.00;102029.59;5115789;28;20396;-33
2022/12/06 07:49:28;;;;;;;6.00;2.80;;;;;;;4.12;100.00;102010.81;5116218;28;20043;-34
2022/12/06 07:51:54;;;;;;;3.80;2.55;;;;;;;4.25;100.00;102021.91;5115201;28;20444;-34
2022/12/06 07:54:20;;;;;;;4.75;2.88;;;;;;;4.26;100.00;102038.81;5115502;28;20031;-34
2022/12/06 07:56:47;;;;;;;5.10;2.63;;;;;;;4.12;100.00;102018.84;5115649;28;20043;-33
2022/12/06 07:59:12;;;;;;;4.15;2.67;;;;;;;4.25;100.00;102034.47;5115314;28;20462;-34
2022/12/06 08:01:38;;;;;;;3.57;2.13;;;;;;;4.34;100.00;102039.69;5114828;28;20024;-33
2022/12/06 08:04:04;;;;;;;3.45;2.30;;;;;;;4.35;100.00;102030.66;5115105;28;20444;-34
2022/12/06 08:06:30;;;;;;;4.85;2.55;;;;;;;4.34;100.00;102038.84;5115519;27;20050;-33
2022/12/06 08:08:55;;;;;;;3.95;2.47;;;;;;;4.42;100.00;102040.72;5115138;28;20055;-34
2022/12/06 08:11:21;;;;;;;4.53;2.27;;;;;;;4.42;100.00;102041.56;5114650;28;20032;-33
2022/12/06 08:13:47;;;;;;;;;;;;;;;4.50;100.00;102043.44;5115888;28;20023;-33
2022/12/06 08:16:12;;;;;;;4.47;2.40;;;;;;;4.41;100.00;102039.06;5114878;28;19908;-33
2022/12/06 08:18:39;;;;;;;5.93;2.70;;;;;;;4.43;100.00;102042.38;5115523;28;20059;-33
2022/12/06 08:21:05;;;;;;;5.57;2.65;;;;;;;4.41;100.00;102041.72;5114749;28;20042;-33
2022/12/06 08:23:30;;;;;;;5.97;2.97;;;;;;;4.38;100.00;102043.72;5114915;28;20020;-33
2022/12/06 08:26:01;;;;;;;3.58;2.13;;;;;;;4.39;100.00;102028.47;5113689;28;20093;-33
2022/12/06 08:28:28;;;;;;;4.22;2.08;;;;;;;4.47;100.00;102038.41;5114496;28;20035;-34
2022/12/06 08:30:53;;;;;;;4.10;2.72;;;;;;;4.36;100.00;102037.69;5114518;28;20434;-34
2022/12/06 08:33:20;;;;;;;3.40;2.57;;;;;;;4.40;100.00;102046.25;5114539;28;20077;-34
2022/12/06 08:35:46;;;;;;;3.88;2.45;;;;;;;4.36;100.00;102037.69;5114195;28;20032;-34
2022/12/06 08:38:11;;;;;;;5.67;2.73;;;;;;;4.34;100.00;102046.88;5114445;28;20031;-34
2022/12/06 08:40:36;;;;;;;5.60;2.90;;;;;;;4.24;100.00;102030.09;5114755;28;20277;-34
2022/12/06 08:43:02;;;;;;;6.27;2.47;;;;;;;4.22;100.00;102046.31;5114943;28;20023;-34
2022/12/06 08:45:27;;;;;;;3.40;2.77;;;;;;;4.19;100.00;102043.97;5114305;28;20023;-34
2022/12/06 08:47:52;;;;;;;3.17;2.30;;;;;;;4.18;100.00;102053.00;5114358;28;20380;-34
2022/12/06 08:50:17;;;;;;;5.23;2.77;;;;;;;4.16;100.00;102056.84;5112588;28;20039;-34
2022/12/06 08:52:43;;;;;;;3.13;2.13;;;;;;;4.18;100.00;102065.53;5114262;28;20039;-34
2022/12/06 08:55:08;;;;;;;3.13;2.07;;;;;;;4.23;100.00;102061.38;5114637;28;20028;-34
2022/12/06 08:57:34;;;;;;;3.33;2.67;;;;;;;4.20;100.00;102069.75;5114845;28;20027;-34
2022/12/06 08:59:59;;;;;;;5.43;2.43;;;;;;;4.22;100.00;102067.75;5114334;28;20480;-34
2022/12/06 09:02:24;;;;;;;3.73;2.70;;;;;;;4.28;100.00;102063.59;5114201;28;20024;-34
2022/12/06 09:04:50;;;;;;;4.03;2.53;;;;;;;4.33;100.00;102062.09;5114085;28;20423;-34
2022/12/06 09:07:16;;;;;;;5.50;2.88;;;;;;;4.38;100.00;102069.66;5114113;28;20367;-34
2022/12/06 09:09:42;;;;;;;5.50;2.58;;;;;;;4.39;100.00;102074.88;5114698;28;20066;-34
2022/12/06 09:12:07;;;;;;;4.00;3.03;;;;;;;4.42;100.00;102065.66;5114120;28;20363;-34
2022/12/06 09:14:32;;;;;;;4.83;3.50;;;;;;;4.47;100.00;102067.84;5112901;28;20035;-34
2022/12/06 09:16:58;;;;;;;6.67;3.40;;;;;;;4.52;100.00;102063.69;5114059;28;20030;-34
2022/12/06 09:19:23;;;;;;;4.30;3.00;;;;;;;4.58;100.00;102079.13;5113830;28;20039;-34
2022/12/06 09:21:48;;;;;;;3.50;2.90;;;;;;;4.65;100.00;102077.47;5113727;28;20092;-34
2022/12/06 09:24:16;;;;;;;7.03;3.13;;;;;;;4.68;100.00;102078.16;5113875;28;20524;-34
2022/12/06 09:26:42;;;;;;;5.38;2.97;;;;;;;4.59;100.00;102050.50;5113220;28;20023;-34
2022/12/06 09:29:08;;;;;;;4.45;3.00;;;;;;;4.81;100.00;102073.19;5113926;28;20030;-34
2022/12/06 09:31:38;;;;;;;4.15;3.17;;;;;;;4.84;100.00;102076.38;5113270;28;20029;-34
2022/12/06 09:34:04;;;;;;;5.13;2.70;;;;;;;4.90;100.00;102083.75;5113892;28;20223;-34
2022/12/06 09:36:29;;;;;;;5.80;2.63;;;;;;;4.96;100.00;102074.22;5113267;28;20031;-34
2022/12/06 09:38:59;;;;;;;4.45;2.75;;;;;;;5.05;100.00;102073.22;5113322;28;20027;-34
2022/12/06 09:41:46;;;;;;;5.00;2.53;;;;;;;5.11;100.00;102075.25;5113542;28;20028;-34
2022/12/06 09:44:32;;;;;;;5.63;3.00;;;;;;;5.12;100.00;102076.09;5113754;28;20080;-34
2022/12/06 09:47:19;;;;;;;6.55;2.72;;;;;;;5.17;100.00;102073.75;5113784;28;20035;-34
2022/12/06 09:50:08;;;;;;;6.05;2.70;;;;;;;5.24;100.00;102074.78;5114310;28;20116;-34
2022/12/06 09:52:39;;;;;;;5.32;2.55;;;;;;;5.25;100.00;102071.09;5113657;28;20085;-34
2022/12/06 09:55:04;;;;;;;6.88;2.50;;;;;;;5.25;100.00;102059.53;5112967;28;20050;-34
2022/12/06 09:57:43;;;;;;;5.70;2.60;;;;;;;5.32;100.00;102071.25;5113327;28;20031;-34
2022/12/06 10:00:12;;;;;;;3.70;2.50;;;;;;;5.29;100.00;102064.38;5113305;28;20024;-35
2022/12/06 10:02:56;;;;;;;4.65;2.58;;;;;;;5.40;100.00;102066.72;5113374;28;20023;-35
2022/12/06 10:05:22;;;;;;;5.88;3.35;;;;;;;5.44;100.00;102067.25;5113226;28;20023;-35
2022/12/06 10:07:56;;;;;;;5.27;3.57;;;;;;;5.42;100.00;102055.84;5113476;28;20038;-35
2022/12/06 10:10:52;;;;;;;6.35;2.72;;;;;;;5.51;100.00;102059.34;5113774;28;20378;-33
2022/12/06 10:13:35;;;;;;;4.28;2.08;;;;;;;5.52;100.00;102061.06;5111115;28;20044;-34
2022/12/06 10:16:20;;;;;;;4.80;2.45;;;;;;;5.50;100.00;102052.31;5113471;28;20410;-34
2022/12/06 10:19:07;;;;;;;3.90;2.33;;;;;;;5.46;100.00;102057.16;5114052;28;20024;-34
2022/12/06 10:21:49;;;;;;;;;;;;;;;5.58;100.00;102061.22;5113700;28;20028;-34
2022/12/06 10:24:42;;;;;;;4.75;1.90;;;;;;;5.55;100.00;102061.53;5113616;28;19920;-35
2022/12/06 10:27:18;;;;;;;5.20;2.70;;;;;;;5.52;100.00;102063.75;5113173;28;20028;-34
2022/12/06 10:29:52;;;;;;;3.88;2.90;;;;;;;5.49;100.00;102056.00;5113630;28;20364;-34
2022/12/06 10:32:18;;;;;;;4.95;3.40;;;;;;;5.54;100.00;102062.53;5113184;28;20081;-34
2022/12/06 10:34:57;;;;;;;5.97;3.30;;;;;;;5.60;100.00;102052.97;5113298;28;20032;-35
2022/12/06 10:37:40;;;;;;;9.05;5.88;;;;;;;5.65;100.00;102053.31;5112942;28;20057;-35
2022/12/06 10:40:23;;;;;;;4.07;3.10;;;;;;;5.68;100.00;102055.66;5112931;28;20378;-35
2022/12/06 10:42:57;;;;;;;4.40;2.65;;;;;;;5.80;100.00;102058.81;5112928;28;20367;-35
2022/12/06 10:48:20;;;;;;;4.05;2.45;;;;;;;5.77;100.00;102043.91;5112861;28;20089;-35
2022/12/06 10:50:53;;;;;;;3.60;2.53;;;;;;;5.78;100.00;102048.28;5115426;28;20024;-34
2022/12/06 10:53:22;;;;;;;7.85;3.35;;;;;;;5.85;100.00;102053.78;5116732;28;20084;-34
2022/12/06 10:55:53;;;;;;;5.57;3.13;;;;;;;5.88;100.00;102050.78;5115864;28;20118;-34
2022/12/06 10:58:50;;;;;;;4.60;2.55;;;;;;;5.91;100.00;102039.69;5116533;28;20038;-34
2022/12/06 11:01:24;;;;;;;5.68;2.72;;;;;;;5.93;100.00;102051.97;5116514;28;20115;-34
2022/12/06 11:04:07;;;;;;;5.80;2.65;;;;;;;5.97;100.00;102048.94;5116642;28;20024;-34
2022/12/06 11:06:39;;;;;;;5.18;2.60;;;;;;;6.02;100.00;102054.66;5116275;28;20479;-34
2022/12/06 11:09:30;;;;;;;3.42;2.28;;;;;;;6.07;100.00;102055.81;5116189;28;20034;-34
2022/12/06 11:11:56;;;;;;;3.63;2.50;;;;;;;6.01;100.00;102026.13;5116400;28;20039;-34
2022/12/06 11:14:25;;;;;;;3.33;2.43;;;;;;;6.15;100.00;102053.09;5116254;28;20368;-34
2022/12/06 11:17:02;;;;;;;3.90;2.28;;;;;;;6.13;100.00;102030.09;5116595;28;20375;-34
2022/12/06 11:19:38;;;;;;;3.95;2.35;;;;;;;6.17;100.00;102037.63;5115443;28;20122;-34
2022/12/06 11:22:12;;;;;;;4.07;2.40;;;;;;;6.19;100.00;102037.47;5116166;28;20054;-34
2022/12/06 11:24:46;;;;;;;4.32;2.50;;;;;;;6.25;100.00;102046.69;5116097;28;20059;-34
2022/12/06 11:27:52;;;;;;;3.72;2.53;;;;;;;6.29;100.00;102045.31;5115768;28;20059;-34
2022/12/06 11:30:18;;;;;;;4.95;2.75;;;;;;;6.15;100.00;102042.34;5033072;28;20068;-34
2022/12/06 11:32:45;;;;;;;5.03;2.15;;;;;;;6.13;100.00;102047.03;5033009;28;20049;-34
2022/12/06 11:35:14;;;;;;;5.05;2.50;;;;;;;6.19;100.00;102038.28;5032944;28;20425;-34
2022/12/06 11:37:39;;;;;;;4.40;2.25;;;;;;;6.23;100.00;102044.16;5032871;28;20129;-34
2022/12/06 11:40:14;;;;;;;3.33;2.13;;;;;;;6.26;100.00;102046.50;5033204;28;20059;-34
2022/12/06 11:42:39;;;;;;;5.20;2.40;;;;;;;6.22;100.00;102036.28;5033247;28;20476;-34
2022/12/06 11:45:32;;;;;;;5.03;2.05;;;;;;;6.25;100.00;102039.47;5033217;28;20033;-34
2022/12/06 11:48:00;;;;;;;4.47;2.10;;;;;;;6.15;100.00;102036.97;5026258;28;20049;-34
2022/12/06 11:50:29;;;;;;;2.60;1.80;;;;;;;6.19;100.00;102032.09;5032659;28;20112;-34
2022/12/06 11:53:01;;;;;;;3.70;1.90;;;;;;;6.22;100.00;102034.44;5033009;28;20069;-34
2022/12/06 11:55:33;;;;;;;3.78;1.70;;;;;;;6.24;100.00;102024.34;5033273;28;20033;-34
2022/12/06 11:58:02;;;;;;;4.47;2.10;;;;;;;6.25;100.00;102017.16;5015830;28;20048;-34
2022/12/06 12:00:28;;;;;;;6.68;1.90;;;;;;;6.25;100.00;102012.59;5032404;28;20441;-34
2022/12/06 12:02:55;;;;;;;3.58;1.85;;;;;;;6.22;100.00;102010.25;5032495;28;20040;-34
2022/12/06 12:05:37;;;;;;;4.93;1.80;;;;;;;6.20;100.00;102012.28;5061657;28;20035;-34